Observations de surface / France / LFBT

Québec | Canada | États-Unis | France | UK | Europe | Ailleurs

Affichage: Infos & localisation pour LFBT | Aide pour décoder les METARs

LFBT TARBES/OSSUN -- FR
Raw surface observations for station LFBT
LFBT 211700Z AUTO VRB02KT CAVOK 04/M00 Q1020 NOSIG=
LFBT 211630Z AUTO 00000KT CAVOK 05/00 Q1020 NOSIG=
LFBT 211600Z AUTO 36005KT CAVOK 06/01 Q1020 NOSIG=
LFBT 211530Z AUTO 01007KT CAVOK 07/00 Q1020 NOSIG=
LFBT 211500Z AUTO 01008KT CAVOK 09/M00 Q1019 NOSIG=
LFBT 211430Z AUTO 02004KT CAVOK 10/M03 Q1019 NOSIG=
LFBT 211400Z AUTO VRB03KT CAVOK 11/M04 Q1019 NOSIG=
LFBT 211330Z AUTO 24004KT 200V290 CAVOK 11/M04 Q1019 NOSIG=
LFBT 211300Z AUTO VRB02KT CAVOK 11/M03 Q1019 NOSIG=
LFBT 211230Z AUTO VRB02KT CAVOK 10/M03 Q1020 NOSIG=
LFBT 211200Z AUTO VRB02KT CAVOK 10/M03 Q1020 NOSIG=
LFBT 211130Z AUTO VRB02KT CAVOK 08/M04 Q1021 NOSIG=
LFBT 211100Z AUTO VRB03KT CAVOK 06/M02 Q1021 NOSIG=
LFBT 211030Z AUTO 32004KT CAVOK 04/M02 Q1021 NOSIG=
LFBT 211000Z AUTO 01005KT 320V070 CAVOK 03/M02 Q1021 NOSIG=
LFBT 210930Z AUTO 14004KT 040V200 CAVOK 03/M02 Q1021 NOSIG=
LFBT 210900Z AUTO 14004KT CAVOK 01/M04 Q1021 NOSIG=
LFBT 210830Z AUTO 17004KT CAVOK M02/M04 Q1020 NOSIG=
LFBT 210800Z AUTO 18005KT CAVOK M03/M06 Q1020 NOSIG=
LFBT 210730Z AUTO 17005KT CAVOK M03/M06 Q1020 NOSIG=
LFBT 210700Z AUTO 16007KT CAVOK M03/M05 Q1020 NOSIG=
LFBT 210630Z AUTO 17007KT CAVOK M03/M05 Q1020 NOSIG=
LFBT 210600Z AUTO 18006KT CAVOK M05/M08 Q1020 NOSIG=
LFBT 210530Z AUTO 18004KT CAVOK M05/M06 Q1020 NOSIG=
LFBT 210500Z AUTO VRB03KT CAVOK M05/M08 Q1021 TEMPO 3000 BR=
LFBT 210430Z AUTO 20002KT CAVOK M06/M08 Q1021 TEMPO 3000 BR=
LFBT 210400Z AUTO 00000KT CAVOK M04/M07 Q1020 TEMPO 3000 BR=
LFBT 210330Z AUTO 13002KT CAVOK M04/M05 Q1021 TEMPO 3000 BR=
LFBT 210300Z AUTO VRB02KT CAVOK M04/M06 Q1021 TEMPO 3000 BR=
LFBT 210230Z AUTO VRB03KT CAVOK M03/M06 Q1021 TEMPO 3000 BR=
LFBT 210200Z AUTO 16005KT CAVOK M03/M05 Q1021 TEMPO 3000 BR=
LFBT 210130Z AUTO 18005KT CAVOK M03/M05 Q1021 TEMPO 3000 BR=
LFBT 210100Z AUTO 15004KT 120V180 CAVOK M03/M04 Q1021 TEMPO 3000 BR=
LFBT 210030Z AUTO 17004KT CAVOK M03/M05 Q1021 TEMPO 3000 BR=
LFBT 210000Z AUTO 15004KT 100V160 CAVOK M03/M05 Q1021 TEMPO 3000 BR=
LFBT 202330Z AUTO 15005KT CAVOK M03/M06 Q1022 TEMPO 3000 BR=
LFBT 202300Z AUTO 16006KT CAVOK M02/M04 Q1022 TEMPO 3000 BR=
LFBT 202230Z AUTO 14004KT 9000 NSC M02/M03 Q1022 TEMPO 3000 BR=
LFBT 202200Z AUTO 19005KT CAVOK M04/M06 Q1022 TEMPO 3000 BR=
LFBT 202130Z AUTO 17003KT 5000 BR NSC M04/M06 Q1022 NOSIG=
LFBT 202100Z AUTO 16004KT 6000 NSC M03/M05 Q1022 TEMPO 3000 BR=
LFBT 202030Z AUTO VRB03KT 6000 NSC M02/M03 Q1022 TEMPO 3000 BR=
LFBT 202000Z AUTO 16004KT 7000 NSC M04/M05 Q1022 NOSIG=
LFBT 201930Z AUTO 18003KT 8000 NSC M03/M04 Q1022 NOSIG=
LFBT 201900Z AUTO 18004KT 8000 NSC M03/M05 Q1022 NOSIG=
LFBT 201830Z AUTO 17003KT CAVOK M02/M04 Q1022 NOSIG=
LFBT 201800Z AUTO 21005KT CAVOK M02/M03 Q1022 NOSIG=
LFBT 201730Z AUTO 22004KT CAVOK M01/M03 Q1022 NOSIG=
LFBT 201700Z AUTO 34003KT CAVOK 02/M01 Q1022 NOSIG=